Time;durP1;ratioP1;P1;durP2;ratioP2;P2;SDS_P1;SDS_P2;PMS_P1;PMS_P2;Temp;Humidity;BMP_temperature;BMP_pressure;BME280_temperature;BME280_humidity;BME280_pressure;Samples;Min_cycle;Max_cycle;Signal;HPM_P1;HPM_P2
2023/08/21 00:00:59;;;;;;;8.50;5.97;;;;;;;22.86;nan;61895.31;5032553;28;20172;-64
2023/08/21 00:03:25;;;;;;;9.07;5.85;;;;;;;23.07;nan;61981.75;5032518;28;20244;-64
2023/08/21 00:05:50;;;;;;;10.23;5.97;;;;;;;23.04;nan;62046.09;5032074;28;20175;-64
2023/08/21 00:08:16;;;;;;;9.18;5.68;;;;;;;22.89;nan;61919.56;5031765;28;20234;-64
2023/08/21 00:10:41;;;;;;;9.70;6.43;;;;;;;22.75;nan;61906.81;5032079;28;20631;-64
2023/08/21 00:13:07;;;;;;;9.70;6.43;;;;;;;22.73;nan;61969.69;5032464;28;20200;-64
2023/08/21 00:15:33;;;;;;;10.93;6.60;;;;;;;22.47;nan;61865.16;5031935;28;20182;-64
2023/08/21 00:17:58;;;;;;;8.40;5.88;;;;;;;22.68;nan;61906.66;5032259;28;20179;-64
2023/08/21 00:20:24;;;;;;;8.27;5.80;;;;;;;22.74;nan;61931.19;5032151;28;20167;-64
2023/08/21 00:22:49;;;;;;;9.95;5.82;;;;;;;22.63;nan;61958.28;5032371;28;20176;-64
2023/08/21 00:25:15;;;;;;;10.60;5.80;;;;;;;22.78;nan;62011.28;5032099;28;20170;-64
2023/08/21 00:27:40;;;;;;;9.60;5.75;;;;;;;22.82;nan;62010.63;5032338;28;20168;-64
2023/08/21 00:30:06;;;;;;;7.75;5.13;;;;;;;22.72;nan;62077.41;5031906;28;20597;-64
2023/08/21 00:32:31;;;;;;;8.50;5.38;;;;;;;22.61;nan;61901.31;5031916;28;20214;-64
2023/08/21 00:34:57;;;;;;;8.75;5.60;;;;;;;22.62;nan;61928.50;5031956;28;20255;-64
2023/08/21 00:37:22;;;;;;;9.32;5.45;;;;;;;22.88;nan;61957.53;5032117;28;20238;-64
2023/08/21 00:39:48;;;;;;;10.13;5.55;;;;;;;23.03;nan;62003.22;5031828;28;20254;-64
2023/08/21 00:42:13;;;;;;;7.85;5.20;;;;;;;22.99;nan;61983.03;5032393;28;20222;-64
2023/08/21 00:44:38;;;;;;;8.05;5.40;;;;;;;22.81;nan;61900.63;5031850;28;20588;-64
2023/08/21 00:47:04;;;;;;;7.43;5.30;;;;;;;22.85;nan;62071.94;5031146;28;20175;-63
2023/08/21 00:49:30;;;;;;;7.50;5.00;;;;;;;22.98;nan;62026.25;5031402;28;20174;-63
2023/08/21 00:51:56;;;;;;;9.75;5.55;;;;;;;22.82;nan;61924.63;5032081;28;20266;-65
2023/08/21 00:54:21;;;;;;;8.13;5.03;;;;;;;22.73;nan;61951.44;5031634;28;20309;-65
2023/08/21 00:56:47;;;;;;;8.05;5.53;;;;;;;21.36;nan;61916.50;5031551;28;20195;-65
2023/08/21 00:59:13;;;;;;;8.18;4.93;;;;;;;22.55;nan;61914.78;5031009;28;20175;-65
2023/08/21 01:01:39;;;;;;;8.23;5.30;;;;;;;22.61;nan;61903.38;5031429;28;20184;-65
2023/08/21 01:04:04;;;;;;;7.97;5.00;;;;;;;22.60;nan;61936.66;5031589;28;20211;-64
2023/08/21 01:06:29;;;;;;;7.97;5.15;;;;;;;22.68;nan;61921.72;5031659;28;20229;-63
2023/08/21 01:09:15;;;;;;;8.65;5.72;;;;;;;22.59;nan;61956.34;5030915;28;20753;-63
2023/08/21 01:11:54;;;;;;;8.10;5.68;;;;;;;22.51;nan;61968.09;5031167;28;20169;-64
2023/08/21 01:14:32;;;;;;;8.05;5.03;;;;;;;22.52;nan;62005.13;5031095;28;20191;-63
2023/08/21 01:17:00;;;;;;;8.60;5.13;;;;;;;22.23;nan;61886.78;5029924;28;20635;-63
2023/08/21 01:19:42;;;;;;;8.57;5.43;;;;;;;22.23;nan;61998.72;5031409;28;20167;-64
2023/08/21 01:22:08;;;;;;;8.88;5.68;;;;;;;22.22;nan;61870.59;5031470;28;20225;-63
2023/08/21 01:24:34;;;;;;;9.85;5.65;;;;;;;22.37;nan;61910.50;5031479;28;20180;-64
2023/08/21 01:26:59;;;;;;;7.65;4.90;;;;;;;22.36;nan;61909.38;5031171;28;20226;-64
2023/08/21 01:29:25;;;;;;;9.45;5.68;;;;;;;22.27;nan;61828.84;5031270;28;20172;-63
2023/08/21 01:32:10;;;;;;;9.02;5.80;;;;;;;22.26;nan;61924.03;5031658;28;20167;-63
2023/08/21 01:34:38;;;;;;;9.10;5.82;;;;;;;22.10;nan;61864.78;5031285;28;20253;-65
2023/08/21 01:37:06;;;;;;;8.32;5.43;;;;;;;22.23;nan;61907.63;5031106;28;20173;-64
2023/08/21 01:39:32;;;;;;;7.45;5.22;;;;;;;22.07;nan;61993.53;5030981;28;20254;-64
2023/08/21 01:41:58;;;;;;;8.68;5.65;;;;;;;21.93;nan;61829.84;5031294;28;20258;-64
2023/08/21 01:44:24;;;;;;;7.55;5.43;;;;;;;22.07;nan;61882.19;5031441;28;20171;-64
2023/08/21 01:46:49;;;;;;;7.18;5.25;;;;;;;21.94;nan;61854.41;5034262;28;20175;-64
2023/08/21 01:49:14;;;;;;;7.47;5.35;;;;;;;21.93;nan;61859.06;5034991;28;20194;-64
2023/08/21 01:51:40;;;;;;;8.25;5.30;;;;;;;21.91;nan;61848.41;5034702;28;20565;-64
2023/08/21 01:54:05;;;;;;;9.63;5.75;;;;;;;21.81;nan;61944.25;5034404;28;20199;-64
2023/08/21 01:56:31;;;;;;;7.25;4.90;;;;;;;22.01;nan;61865.53;5034999;28;20671;-64
2023/08/21 01:58:56;;;;;;;9.13;5.45;;;;;;;22.08;nan;61986.84;5034514;28;20159;-64
2023/08/21 02:01:23;;;;;;;8.43;5.38;;;;;;;22.10;nan;61856.97;5035369;28;20585;-64
2023/08/21 02:03:48;;;;;;;7.57;5.40;;;;;;;22.23;nan;61952.44;5035068;28;20616;-63
2023/08/21 02:06:13;;;;;;;7.75;5.15;;;;;;;21.99;nan;61998.59;5034363;28;20689;-64
2023/08/21 02:08:39;;;;;;;7.35;4.97;;;;;;;22.12;nan;61880.06;5033917;28;20741;-64
2023/08/21 02:11:04;;;;;;;11.65;5.80;;;;;;;22.17;nan;61890.94;5035032;28;20183;-64
2023/08/21 02:13:30;;;;;;;8.85;5.50;;;;;;;22.17;nan;61932.59;5034590;28;20681;-64
2023/08/21 02:15:55;;;;;;;8.45;5.30;;;;;;;22.16;nan;61876.22;5034845;28;20179;-65
2023/08/21 02:18:20;;;;;;;7.90;5.30;;;;;;;21.99;nan;61844.47;5033466;28;20267;-65
2023/08/21 02:20:48;;;;;;;9.05;5.70;;;;;;;21.71;nan;61940.13;5034544;28;20245;-64
2023/08/21 02:23:14;;;;;;;8.07;5.50;;;;;;;21.72;nan;61832.59;5034312;28;20171;-64
2023/08/21 02:25:39;;;;;;;8.35;5.55;;;;;;;21.83;nan;62045.38;5034458;28;20509;-64
2023/08/21 02:28:05;;;;;;;12.00;5.88;;;;;;;21.89;nan;61854.50;5034424;28;20549;-64
2023/08/21 02:30:30;;;;;;;10.98;5.40;;;;;;;21.67;nan;61837.31;5034048;28;20183;-64
2023/08/21 02:32:55;;;;;;;8.00;5.13;;;;;;;21.62;nan;61781.66;5033953;28;20195;-64
2023/08/21 02:35:21;;;;;;;10.20;5.45;;;;;;;21.79;nan;61939.38;5034049;28;20225;-64
2023/08/21 02:37:46;;;;;;;9.77;5.75;;;;;;;21.73;nan;61833.16;5033683;28;20183;-64
2023/08/21 02:40:12;;;;;;;9.27;5.55;;;;;;;21.64;nan;61917.09;5033750;28;20171;-64
2023/08/21 02:42:37;;;;;;;9.90;5.88;;;;;;;21.45;nan;61773.91;5033490;28;20174;-64
2023/08/21 02:45:08;;;;;;;9.23;5.68;;;;;;;21.50;nan;61873.16;5033688;28;20167;-64
2023/08/21 02:47:40;;;;;;;8.48;5.30;;;;;;;21.31;nan;61734.63;5033988;28;20579;-64
2023/08/21 02:50:07;;;;;;;8.10;5.35;;;;;;;21.28;nan;61808.59;5033705;28;20186;-63
2023/08/21 02:52:34;;;;;;;7.88;5.28;;;;;;;21.41;nan;61779.19;5033437;28;20179;-63
2023/08/21 02:54:59;;;;;;;9.07;5.97;;;;;;;21.49;nan;61868.88;5034068;28;20668;-64
2023/08/21 02:57:26;;;;;;;9.20;5.80;;;;;;;21.43;nan;61807.44;5033725;28;20250;-64
2023/08/21 02:59:52;;;;;;;7.80;5.35;;;;;;;21.65;nan;61967.09;5033681;28;20249;-64
2023/08/21 03:02:18;;;;;;;9.30;5.90;;;;;;;21.57;nan;61929.97;5027123;28;20626;-65
2023/08/21 03:04:43;;;;;;;10.65;5.65;;;;;;;21.72;nan;61809.19;5030772;28;20726;-64
2023/08/21 03:07:09;;;;;;;10.30;5.70;;;;;;;21.59;nan;61805.38;5033338;28;20654;-64
2023/08/21 03:09:34;;;;;;;10.40;5.60;;;;;;;21.53;nan;61806.38;5014133;28;20178;-64
2023/08/21 03:11:59;;;;;;;7.45;5.07;;;;;;;21.36;nan;61903.50;5018317;28;20186;-64
2023/08/21 03:14:26;;;;;;;9.80;5.53;;;;;;;21.47;nan;61822.97;5033293;28;20238;-64
2023/08/21 03:16:52;;;;;;;7.82;5.38;;;;;;;21.26;nan;61887.50;5033401;28;20713;-64
2023/08/21 03:19:17;;;;;;;10.15;6.10;;;;;;;21.47;nan;61863.97;5033538;28;20519;-64
2023/08/21 03:21:43;;;;;;;8.73;5.78;;;;;;;21.44;nan;61808.59;5032912;28;20654;-64
2023/08/21 03:24:08;;;;;;;11.77;5.60;;;;;;;21.42;nan;61770.47;5032436;28;20191;-64
2023/08/21 03:26:34;;;;;;;9.80;6.18;;;;;;;21.43;nan;61823.03;5033225;28;20175;-64
2023/08/21 03:28:59;;;;;;;9.23;6.00;;;;;;;21.38;nan;61853.75;5033259;28;20175;-64
2023/08/21 03:31:24;;;;;;;7.90;5.65;;;;;;;21.46;nan;61892.00;5032819;28;20656;-64
2023/08/21 03:33:50;;;;;;;9.88;5.78;;;;;;;21.52;nan;61919.66;5032972;28;20221;-64
2023/08/21 03:36:15;;;;;;;7.75;5.35;;;;;;;21.73;nan;61815.53;5033118;28;20713;-64
2023/08/21 03:38:40;;;;;;;9.50;5.30;;;;;;;21.69;nan;61904.59;5033757;28;20187;-65
2023/08/21 03:41:06;;;;;;;9.30;5.40;;;;;;;21.85;nan;61838.97;5033143;28;20575;-64
2023/08/21 03:43:32;;;;;;;9.32;5.38;;;;;;;19.98;nan;61665.34;5032690;28;20204;-64
2023/08/21 03:45:58;;;;;;;8.40;5.75;;;;;;;21.80;nan;61848.91;5033023;28;20610;-64
2023/08/21 03:48:23;;;;;;;7.85;5.18;;;;;;;21.82;nan;61828.34;5032846;28;20172;-64
2023/08/21 03:50:49;;;;;;;10.75;5.25;;;;;;;22.00;nan;61947.69;5031336;28;20272;-64
2023/08/21 03:53:15;;;;;;;9.15;5.57;;;;;;;22.22;nan;61857.03;5030928;28;20215;-65
2023/08/21 03:55:40;;;;;;;9.30;5.18;;;;;;;22.55;nan;61923.16;5032651;28;20167;-65
2023/08/21 03:58:06;;;;;;;8.52;5.43;;;;;;;22.76;nan;61978.31;5032814;28;20167;-65
2023/08/21 04:00:31;;;;;;;8.05;5.72;;;;;;;23.15;nan;62011.69;5032621;28;20179;-65
2023/08/21 04:02:58;;;;;;;8.05;5.07;;;;;;;23.75;nan;62141.47;5032650;28;20198;-65
2023/08/21 04:05:23;;;;;;;9.40;5.95;;;;;;;24.18;nan;62158.59;5032067;28;20716;-65
2023/08/21 04:07:49;;;;;;;8.57;5.28;;;;;;;24.42;nan;62112.78;5031651;28;20215;-65
2023/08/21 04:10:15;;;;;;;8.38;5.60;;;;;;;25.05;nan;62309.53;5032461;28;20630;-65
2023/08/21 04:12:41;;;;;;;8.80;5.30;;;;;;;25.32;nan;62245.59;5031388;28;20262;-65
2023/08/21 04:15:07;;;;;;;11.38;6.10;;;;;;;25.64;nan;62304.53;5031194;28;20273;-65
2023/08/21 04:17:32;;;;;;;13.38;6.05;;;;;;;26.23;nan;62440.00;5032179;28;20179;-65
2023/08/21 04:19:57;;;;;;;7.15;4.95;;;;;;;26.28;nan;62414.25;5031973;28;20176;-63
2023/08/21 04:22:23;;;;;;;10.65;4.82;;;;;;;26.71;nan;62491.69;5031858;28;20179;-63
2023/08/21 04:24:48;;;;;;;7.70;5.18;;;;;;;27.00;nan;62644.41;5032304;28;20182;-64
2023/08/21 04:27:14;;;;;;;8.20;5.60;;;;;;;27.10;nan;62556.13;5031022;28;20225;-64
2023/08/21 04:29:40;;;;;;;8.55;5.32;;;;;;;27.05;nan;62516.88;5031975;28;20178;-64
2023/08/21 04:32:06;;;;;;;8.80;5.80;;;;;;;27.23;nan;62629.34;5031934;28;20171;-64
2023/08/21 04:34:34;;;;;;;8.10;5.25;;;;;;;27.21;nan;62792.38;5031445;28;20187;-65
2023/08/21 04:37:00;;;;;;;9.95;4.90;;;;;;;27.13;nan;62764.25;5032434;28;20155;-65
2023/08/21 04:39:25;;;;;;;10.02;5.50;;;;;;;27.13;nan;62625.75;5032025;28;20175;-65
2023/08/21 04:41:51;;;;;;;7.80;5.15;;;;;;;27.08;nan;62493.50;5030964;28;20188;-65
2023/08/21 04:44:16;;;;;;;6.93;5.03;;;;;;;27.08;nan;62520.31;5029936;28;20186;-65
2023/08/21 04:46:42;;;;;;;9.43;5.20;;;;;;;26.76;nan;62502.06;5030987;28;20173;-65
2023/08/21 04:49:08;;;;;;;7.68;5.47;;;;;;;26.83;nan;62591.38;5031457;28;20167;-64
2023/08/21 04:51:34;;;;;;;7.55;4.82;;;;;;;26.75;nan;62535.59;5031280;28;20273;-65
2023/08/21 04:53:59;;;;;;;8.25;5.20;;;;;;;23.42;nan;64003.19;5030034;28;20573;-64
2023/08/21 04:56:25;;;;;;;7.78;5.03;;;;;;;26.18;nan;62509.66;5030910;28;20260;-64
2023/08/21 04:58:52;;;;;;;7.18;4.97;;;;;;;26.01;nan;62532.72;5031278;28;20321;-64
2023/08/21 05:01:18;;;;;;;8.88;5.40;;;;;;;26.08;nan;62399.25;5031419;28;20720;-64
2023/08/21 05:03:43;;;;;;;6.68;4.88;;;;;;;25.92;nan;62470.03;5030682;28;20262;-64
2023/08/21 05:06:08;;;;;;;11.13;5.43;;;;;;;26.22;nan;62375.41;5031295;28;20178;-64
2023/08/21 05:08:34;;;;;;;7.85;5.28;;;;;;;26.29;nan;62457.34;5030943;28;20219;-64
2023/08/21 05:11:00;;;;;;;9.35;4.88;;;;;;;26.18;nan;62397.56;5032361;28;20164;-64
2023/08/21 05:13:26;;;;;;;7.68;4.72;;;;;;;25.89;nan;62336.25;5031337;28;20195;-63
2023/08/21 05:15:56;;;;;;;8.10;4.97;;;;;;;26.14;nan;62384.56;5031275;28;20183;-63
2023/08/21 05:18:22;;;;;;;8.18;4.63;;;;;;;25.93;nan;62542.47;5031784;28;20266;-64
2023/08/21 05:20:49;;;;;;;9.88;5.15;;;;;;;26.38;nan;62414.63;5031600;28;20205;-65
2023/08/21 05:23:15;;;;;;;9.90;5.03;;;;;;;26.28;nan;62529.00;5034700;28;20187;-64
2023/08/21 05:25:40;;;;;;;8.25;5.50;;;;;;;26.28;nan;62589.25;5034845;28;20173;-64
2023/08/21 05:28:06;;;;;;;10.30;4.88;;;;;;;26.67;nan;62523.25;5034486;28;20205;-64
2023/08/21 05:30:32;;;;;;;7.28;4.80;;;;;;;26.94;nan;62472.81;5034151;28;20218;-64
2023/08/21 05:32:58;;;;;;;8.27;4.95;;;;;;;27.02;nan;62744.34;5034551;28;20230;-64
2023/08/21 05:35:23;;;;;;;10.30;4.90;;;;;;;27.37;nan;62667.84;5034001;28;20241;-65
2023/08/21 05:37:48;;;;;;;10.13;5.22;;;;;;;27.37;nan;62510.91;5034987;28;20286;-65
2023/08/21 05:40:14;;;;;;;9.85;5.00;;;;;;;27.65;nan;62621.72;5034496;28;20187;-64
2023/08/21 05:42:39;;;;;;;8.80;5.25;;;;;;;27.77;nan;62732.09;5034071;28;20203;-64
2023/08/21 05:45:06;;;;;;;12.00;6.43;;;;;;;27.94;nan;62709.53;5033801;28;20183;-65
2023/08/21 05:47:31;;;;;;;10.73;5.80;;;;;;;27.86;nan;62678.78;5034822;28;20176;-66
2023/08/21 05:49:56;;;;;;;9.80;5.72;;;;;;;27.95;nan;62634.47;5034519;28;20176;-64
2023/08/21 05:52:25;;;;;;;7.55;4.88;;;;;;;28.10;nan;62680.59;5034531;28;20206;-64
2023/08/21 05:54:50;;;;;;;11.38;5.80;;;;;;;28.28;nan;62697.44;5034554;28;20220;-65
2023/08/21 05:57:15;;;;;;;10.70;4.97;;;;;;;28.28;nan;62694.81;5033959;28;20171;-66
2023/08/21 05:59:46;;;;;;;10.40;5.47;;;;;;;28.37;nan;62816.13;5034263;28;20245;-66
2023/08/21 06:02:12;;;;;;;12.43;6.43;;;;;;;28.56;nan;62837.34;5034465;28;20262;-66
2023/08/21 06:04:41;;;;;;;8.45;5.07;;;;;;;28.93;nan;62761.41;5033882;28;20206;-66
2023/08/21 06:07:07;;;;;;;12.30;5.72;;;;;;;29.19;nan;63027.63;5034103;28;20175;-66
2023/08/21 06:09:36;;;;;;;10.38;5.90;;;;;;;29.32;nan;62884.56;5034405;28;20221;-67
2023/08/21 06:12:05;;;;;;;7.68;5.57;;;;;;;28.76;nan;62883.44;5034133;28;20179;-66
2023/08/21 06:14:30;;;;;;;14.10;5.15;;;;;;;29.38;nan;62999.44;5032537;28;20245;-66
2023/08/21 06:17:01;;;;;;;7.57;5.22;;;;;;;29.47;nan;62874.88;5034112;28;20182;-65
2023/08/21 06:19:27;;;;;;;9.32;5.43;;;;;;;29.20;nan;62933.41;5033911;28;20216;-65
2023/08/21 06:21:52;;;;;;;7.88;5.28;;;;;;;29.27;nan;62962.53;5033825;28;20182;-65
2023/08/21 06:24:18;;;;;;;8.90;5.65;;;;;;;29.73;nan;62938.97;5033912;28;20254;-65
2023/08/21 06:26:43;;;;;;;9.05;5.72;;;;;;;29.88;nan;62968.84;5033433;28;20175;-65
2023/08/21 06:29:09;;;;;;;10.20;5.15;;;;;;;29.59;nan;62933.44;5033693;28;20472;-64
2023/08/21 06:31:34;;;;;;;6.88;4.78;;;;;;;29.84;nan;62985.31;5033038;28;20182;-67
2023/08/21 06:33:59;;;;;;;9.10;5.20;;;;;;;26.92;nan;64546.09;5033724;28;20208;-65
2023/08/21 06:36:25;;;;;;;6.88;4.30;;;;;;;30.13;nan;63041.81;5032893;28;20183;-64
2023/08/21 06:38:50;;;;;;;8.80;5.00;;;;;;;30.01;nan;62970.59;5033216;28;20175;-65
2023/08/21 06:41:16;;;;;;;6.32;4.40;;;;;;;30.09;nan;63092.59;5031946;28;20174;-65
2023/08/21 06:43:41;;;;;;;8.35;4.65;;;;;;;29.80;nan;63009.69;5064835;28;20186;-65
2023/08/21 06:46:07;;;;;;;8.98;4.97;;;;;;;29.94;nan;62978.38;5033592;28;20182;-65
2023/08/21 06:48:32;;;;;;;10.18;5.30;;;;;;;29.81;nan;62953.44;5033521;28;20206;-65
2023/08/21 06:50:58;;;;;;;5.93;4.28;;;;;;;30.16;nan;63103.88;5033665;28;20524;-65
2023/08/21 06:53:24;;;;;;;8.25;4.28;;;;;;;30.24;nan;63041.28;5033330;28;20568;-65
2023/08/21 06:55:49;;;;;;;7.22;4.30;;;;;;;30.43;nan;63049.38;5033410;28;20282;-65
2023/08/21 06:58:14;;;;;;;7.10;4.82;;;;;;;30.25;nan;62992.31;5031753;28;20174;-66
2023/08/21 07:00:40;;;;;;;9.02;5.53;;;;;;;30.22;nan;63073.28;5032045;28;20200;-66
2023/08/21 07:03:07;;;;;;;12.50;7.53;;;;;;;30.67;nan;63064.38;5033255;28;20182;-65
2023/08/21 07:05:33;;;;;;;9.95;6.00;;;;;;;30.96;nan;63097.16;5033176;28;20316;-66
2023/08/21 07:07:59;;;;;;;13.15;8.10;;;;;;;30.88;nan;62979.69;5033215;28;20218;-66
2023/08/21 07:10:24;;;;;;;10.48;6.90;;;;;;;31.00;nan;63161.91;5033086;28;20182;-64
2023/08/21 07:12:50;;;;;;;7.43;5.35;;;;;;;30.86;nan;63108.81;5032429;28;20755;-64
2023/08/21 07:15:15;;;;;;;10.38;6.15;;;;;;;30.91;nan;63109.31;5033244;28;20630;-66
2023/08/21 07:17:41;;;;;;;10.13;6.13;;;;;;;31.02;nan;63129.91;5033043;28;20258;-66
2023/08/21 07:20:07;;;;;;;7.30;5.00;;;;;;;31.26;nan;63228.28;5032800;28;20262;-65
2023/08/21 07:22:32;;;;;;;9.25;5.30;;;;;;;31.06;nan;63193.19;5032434;28;20193;-67
2023/08/21 07:25:00;;;;;;;6.78;4.82;;;;;;;31.04;nan;63105.78;5032570;28;20258;-66
2023/08/21 07:27:26;;;;;;;7.40;4.97;;;;;;;31.64;nan;63258.88;5032382;28;20164;-65
2023/08/21 07:29:51;;;;;;;6.38;4.57;;;;;;;31.72;nan;63301.91;5032462;28;20171;-66
2023/08/21 07:32:17;;;;;;;8.05;4.75;;;;;;;31.73;nan;63351.22;5064303;28;20270;-66
2023/08/21 07:34:42;;;;;;;7.10;4.75;;;;;;;31.48;nan;63259.50;5031980;28;20203;-65
2023/08/21 07:37:09;;;;;;;8.35;5.30;;;;;;;31.68;nan;63270.84;5031986;28;20646;-64
2023/08/21 07:39:34;;;;;;;5.78;4.43;;;;;;;31.67;nan;63341.09;5032240;28;20171;-65
2023/08/21 07:42:00;;;;;;;8.07;4.65;;;;;;;31.42;nan;63286.34;5032201;28;20512;-65
2023/08/21 07:44:26;;;;;;;9.27;4.32;;;;;;;31.63;nan;63212.22;5031334;28;20578;-65
2023/08/21 07:46:52;;;;;;;8.30;4.85;;;;;;;31.84;nan;63247.56;5032117;28;20244;-65
2023/08/21 07:49:17;;;;;;;7.18;4.57;;;;;;;32.19;nan;63376.72;5032023;28;20178;-69
2023/08/21 07:51:43;;;;;;;6.07;4.38;;;;;;;32.21;nan;63310.81;5031967;28;20197;-65
2023/08/21 07:54:08;;;;;;;7.47;4.65;;;;;;;32.64;nan;63391.63;5032252;28;20206;-67
2023/08/21 07:56:35;;;;;;;5.22;4.03;;;;;;;32.46;nan;63425.84;5031685;28;20217;-66
2023/08/21 07:59:01;;;;;;;5.78;3.97;;;;;;;32.22;nan;63304.03;5031998;28;20178;-67
2023/08/21 08:01:27;;;;;;;6.30;4.10;;;;;;;32.53;nan;63470.97;5032066;28;20178;-66
2023/08/21 08:03:52;;;;;;;5.75;4.55;;;;;;;32.40;nan;63412.13;5031951;28;20233;-67
2023/08/21 08:06:18;;;;;;;5.25;4.18;;;;;;;32.67;nan;63485.09;5031971;28;20179;-68
2023/08/21 08:08:46;;;;;;;5.28;3.92;;;;;;;32.72;nan;63448.50;5032059;28;20223;-66
2023/08/21 08:11:12;;;;;;;5.32;3.80;;;;;;;33.12;nan;63594.25;5031144;28;20178;-66
2023/08/21 08:13:37;;;;;;;4.85;3.80;;;;;;;33.02;nan;63501.13;5031555;28;20653;-66
2023/08/21 08:16:02;;;;;;;8.38;4.13;;;;;;;32.97;nan;63571.63;5063983;28;20183;-64
2023/08/21 08:18:28;;;;;;;6.55;4.28;;;;;;;32.37;nan;63458.38;5031906;28;20171;-67
2023/08/21 08:20:53;;;;;;;5.50;4.07;;;;;;;33.46;nan;63593.25;5031830;28;20178;-66
2023/08/21 08:23:20;;;;;;;5.20;3.78;;;;;;;33.49;nan;63499.19;5031602;28;20264;-66
2023/08/21 08:25:46;;;;;;;5.85;4.07;;;;;;;33.69;nan;63593.38;5031517;28;20710;-66
2023/08/21 08:28:11;;;;;;;7.30;3.97;;;;;;;33.80;nan;63685.09;5031655;28;20269;-66
2023/08/21 08:30:36;;;;;;;4.93;3.97;;;;;;;34.21;nan;63655.03;5031438;28;20634;-65
2023/08/21 08:33:02;;;;;;;8.18;3.97;;;;;;;33.88;nan;63697.59;5031231;28;20199;-66
2023/08/21 08:35:27;;;;;;;7.13;4.18;;;;;;;34.03;nan;63632.69;5031612;28;20183;-65
2023/08/21 08:37:54;;;;;;;9.00;4.22;;;;;;;34.10;nan;63709.22;5031249;28;20179;-65
2023/08/21 08:40:22;;;;;;;6.55;3.78;;;;;;;34.21;nan;63676.28;5031269;28;20175;-66
2023/08/21 08:42:47;;;;;;;4.93;3.70;;;;;;;34.22;nan;63666.81;5031165;28;20642;-66
2023/08/21 08:45:14;;;;;;;5.82;3.55;;;;;;;34.28;nan;63793.22;5031345;28;20220;-66
2023/08/21 08:47:40;;;;;;;6.03;4.68;;;;;;;34.29;nan;63664.28;5031476;28;20583;-67
2023/08/21 08:50:07;;;;;;;6.07;4.20;;;;;;;34.38;nan;63781.50;5031265;28;20186;-66
2023/08/21 08:52:36;;;;;;;6.53;4.63;;;;;;;34.47;nan;63717.00;5031721;28;20220;-66
2023/08/21 08:55:03;;;;;;;6.53;4.20;;;;;;;34.36;nan;63858.84;5030739;28;20171;-66
2023/08/21 08:57:28;;;;;;;5.45;3.90;;;;;;;;;;5031133;28;20186;-69
2023/08/21 08:59:53;;;;;;;8.02;4.20;;;;;;;34.74;nan;63832.72;5031015;28;20159;-65
2023/08/21 09:02:19;;;;;;;6.05;4.38;;;;;;;34.72;nan;63886.78;5030884;28;20650;-66
2023/08/21 09:04:44;;;;;;;6.00;3.95;;;;;;;34.99;nan;63857.00;5030590;28;20229;-66
2023/08/21 09:07:11;;;;;;;8.57;4.03;;;;;;;34.67;nan;63787.41;5030561;28;20178;-66
2023/08/21 09:09:40;;;;;;;5.82;4.18;;;;;;;34.74;nan;63843.34;5031377;28;20589;-66
2023/08/21 09:12:11;;;;;;;5.47;4.15;;;;;;;35.02;nan;63873.16;5031191;28;20186;-66
2023/08/21 09:14:38;;;;;;;5.70;4.20;;;;;;;34.96;nan;63890.72;5030632;28;20716;-66
2023/08/21 09:17:04;;;;;;;5.22;4.03;;;;;;;34.93;nan;63919.13;5030713;28;20265;-65
2023/08/21 09:19:29;;;;;;;6.22;4.18;;;;;;;34.83;nan;63835.75;5031083;28;20587;-65
2023/08/21 09:21:54;;;;;;;6.45;4.32;;;;;;;34.66;nan;63889.84;5030304;28;20167;-66
2023/08/21 09:24:20;;;;;;;7.13;4.20;;;;;;;34.59;nan;63744.16;5030876;28;20566;-66
2023/08/21 09:26:45;;;;;;;6.57;4.13;;;;;;;34.82;nan;63857.97;5030905;28;20539;-65
2023/08/21 09:29:11;;;;;;;4.88;3.92;;;;;;;34.60;nan;63799.03;5030930;28;20174;-66
2023/08/21 09:31:36;;;;;;;5.75;4.18;;;;;;;35.13;nan;63885.94;5030796;28;20232;-67
2023/08/21 09:34:07;;;;;;;4.95;3.67;;;;;;;35.45;nan;63901.22;5030759;28;20695;-66
2023/08/21 09:36:33;;;;;;;5.72;4.10;;;;;;;35.96;nan;64061.03;5030695;28;20163;-68
2023/08/21 09:39:00;;;;;;;5.07;3.70;;;;;;;36.28;nan;64276.72;5030803;28;20170;-66
2023/08/21 09:41:26;;;;;;;4.20;3.65;;;;;;;36.37;nan;64105.47;5030928;28;20175;-65
2023/08/21 09:43:51;;;;;;;5.20;3.63;;;;;;;36.50;nan;64104.00;5030654;28;20654;-68
2023/08/21 09:46:24;;;;;;;6.07;4.20;;;;;;;36.80;nan;64194.31;5030836;28;20270;-66
2023/08/21 09:48:51;;;;;;;5.40;3.92;;;;;;;33.11;nan;63585.72;5030826;28;20188;-68
2023/08/21 09:51:17;;;;;;;7.43;4.10;;;;;;;36.21;nan;64006.94;5030808;28;21025;-67
2023/08/21 09:53:43;;;;;;;5.72;3.95;;;;;;;36.10;nan;64018.72;5030730;28;20677;-67
2023/08/21 09:56:09;;;;;;;5.47;3.92;;;;;;;36.59;nan;64090.47;5030565;28;20194;-69
2023/08/21 09:58:36;;;;;;;5.43;3.75;;;;;;;37.19;nan;64311.75;5030875;28;20225;-66
2023/08/21 10:01:08;;;;;;;4.45;3.45;;;;;;;36.75;nan;64202.41;5030492;28;20181;-65
2023/08/21 10:03:35;;;;;;;5.10;3.88;;;;;;;36.87;nan;64226.47;5029900;28;20175;-65
2023/08/21 10:06:01;;;;;;;5.28;3.85;;;;;;;36.37;nan;64099.53;5030637;28;20250;-65
2023/08/21 10:08:28;;;;;;;4.25;3.53;;;;;;;36.04;nan;64061.75;5034192;28;20223;-67
2023/08/21 10:10:55;;;;;;;5.30;3.67;;;;;;;36.20;nan;64096.94;5033791;28;20171;-66
2023/08/21 10:13:21;;;;;;;10.77;3.80;;;;;;;35.86;nan;64039.31;5034176;28;20191;-67
2023/08/21 10:15:47;;;;;;;5.90;4.10;;;;;;;35.86;nan;64047.31;5033422;28;20175;-68
2023/08/21 10:18:23;;;;;;;5.07;3.65;;;;;;;35.70;nan;63951.53;5033854;28;20221;-65
2023/08/21 10:20:49;;;;;;;5.65;3.70;;;;;;;36.05;nan;64201.97;5033707;28;20205;-64
2023/08/21 10:23:37;;;;;;;5.15;3.85;;;;;;;36.05;nan;64073.56;5033423;28;20175;-65
2023/08/21 10:26:06;;;;;;;5.60;3.50;;;;;;;36.00;nan;64030.47;5012961;28;20245;-65
2023/08/21 10:29:02;;;;;;;4.95;3.63;;;;;;;36.96;nan;64242.28;5013876;28;20627;-65
2023/08/21 10:31:28;;;;;;;4.65;3.38;;;;;;;36.41;nan;64120.75;5009227;28;20187;-66
2023/08/21 10:33:54;;;;;;;5.25;3.60;;;;;;;36.26;nan;64153.94;5013808;28;20636;-65
2023/08/21 10:36:43;;;;;;;4.88;3.45;;;;;;;36.10;nan;64068.72;5014131;28;20207;-66
2023/08/21 10:39:20;;;;;;;4.72;3.25;;;;;;;35.34;nan;63822.56;5032939;28;20724;-66
2023/08/21 10:42:09;;;;;;;7.72;3.40;;;;;;;34.96;nan;64028.94;5033188;28;20182;-66
2023/08/21 10:44:42;;;;;;;5.90;3.63;;;;;;;34.74;nan;63804.06;5033656;28;20181;-63
2023/08/21 10:47:15;;;;;;;5.63;3.50;;;;;;;34.58;nan;63679.28;5033104;28;20218;-66
2023/08/21 10:49:40;;;;;;;5.53;4.00;;;;;;;35.01;nan;63856.63;5033767;28;20171;-66
2023/08/21 10:52:08;;;;;;;4.35;3.22;;;;;;;33.29;nan;63699.34;5033014;28;20182;-68
2023/08/21 10:54:54;;;;;;;5.43;3.70;;;;;;;35.01;nan;63814.09;5033464;28;20205;-66
2023/08/21 10:57:21;;;;;;;7.28;3.85;;;;;;;34.92;nan;63941.88;5033195;28;20682;-66
2023/08/21 10:59:50;;;;;;;5.60;3.70;;;;;;;36.13;nan;64040.28;5032849;28;20174;-65
2023/08/21 11:02:15;;;;;;;6.57;3.97;;;;;;;32.97;nan;65419.31;5033020;28;20301;-66
2023/08/21 11:04:41;;;;;;;6.07;3.75;;;;;;;35.77;nan;63951.69;4847845;28;21076;-67
2023/08/21 11:07:07;;;;;;;4.03;3.35;;;;;;;35.73;nan;63999.69;4898665;28;20562;-68
2023/08/21 11:09:36;;;;;;;5.75;3.50;;;;;;;35.66;nan;63972.91;5033029;28;20178;-65
2023/08/21 11:12:06;;;;;;;4.65;3.47;;;;;;;35.69;nan;64144.06;5032750;28;20626;-66
2023/08/21 11:14:32;;;;;;;4.80;3.30;;;;;;;35.65;nan;63955.81;5032909;28;20191;-63
2023/08/21 11:16:59;;;;;;;7.05;3.83;;;;;;;35.90;nan;64022.09;5033461;28;20178;-67
2023/08/21 11:19:25;;;;;;;5.20;3.83;;;;;;;36.02;nan;64017.41;5031855;28;20543;-65
2023/08/21 11:21:51;;;;;;;4.50;3.90;;;;;;;36.00;nan;64113.00;5032714;28;20181;-66
2023/08/21 11:24:16;;;;;;;5.00;3.65;;;;;;;35.79;nan;64001.34;5033181;28;20186;-68
2023/08/21 11:26:42;;;;;;;5.15;3.28;;;;;;;35.99;nan;64053.84;5031505;28;20175;-65
2023/08/21 11:29:08;;;;;;;5.38;3.67;;;;;;;35.77;nan;63991.59;5030996;28;20179;-66
2023/08/21 11:31:33;;;;;;;7.35;3.78;;;;;;;35.55;nan;64011.28;5032447;28;20178;-66
2023/08/21 11:33:58;;;;;;;4.78;3.28;;;;;;;35.45;nan;63941.13;5032968;28;20206;-67
2023/08/21 11:36:24;;;;;;;4.72;3.63;;;;;;;35.68;nan;63967.28;5032747;28;20593;-64
2023/08/21 11:39:00;;;;;;;6.35;3.42;;;;;;;35.80;nan;64008.41;5032409;28;20187;-64
2023/08/21 11:41:25;;;;;;;5.03;3.45;;;;;;;35.96;nan;64007.19;5032242;28;20182;-65
2023/08/21 11:43:51;;;;;;;4.63;3.45;;;;;;;35.77;nan;64022.97;5032597;28;20565;-63
2023/08/21 11:46:18;;;;;;;4.47;3.50;;;;;;;35.65;nan;64145.34;5032547;28;20567;-68